sensor_id;sensor_type;location;lat;lon;timestamp;pressure;altitude;pressure_sealevel;temperature;humidity
57094;BME280;42970;50.996;3.706;2023-02-19T00:01:19;75585.66;;;-146.65;100.00
57094;BME280;42970;50.996;3.706;2023-02-19T00:03:48;75579.59;;;-146.65;100.00
57094;BME280;42970;50.996;3.706;2023-02-19T00:06:14;75577.59;;;-146.65;100.00
57094;BME280;42970;50.996;3.706;2023-02-19T00:08:40;75585.66;;;-146.65;100.00
57094;BME280;42970;50.996;3.706;2023-02-19T00:11:06;75583.63;;;-146.65;100.00
57094;BME280;42970;50.996;3.706;2023-02-19T00:13:35;75579.59;;;-146.65;100.00
57094;BME280;42970;50.996;3.706;2023-02-19T00:16:07;75581.63;;;-146.65;100.00
57094;BME280;42970;50.996;3.706;2023-02-19T00:18:33;75579.59;;;-146.65;100.00
57094;BME280;42970;50.996;3.706;2023-02-19T00:20:58;75577.59;;;-146.65;100.00
57094;BME280;42970;50.996;3.706;2023-02-19T00:23:23;75585.66;;;-146.65;100.00
57094;BME280;42970;50.996;3.706;2023-02-19T00:25:49;75587.66;;;-146.65;100.00
57094;BME280;42970;50.996;3.706;2023-02-19T00:28:14;75589.69;;;-146.65;100.00
57094;BME280;42970;50.996;3.706;2023-02-19T00:30:39;75601.78;;;-146.65;100.00
57094;BME280;42970;50.996;3.706;2023-02-19T00:33:05;75597.75;;;-146.65;100.00
57094;BME280;42970;50.996;3.706;2023-02-19T00:35:32;75601.78;;;-146.65;100.00
57094;BME280;42970;50.996;3.706;2023-02-19T00:37:58;75605.81;;;-146.65;100.00
57094;BME280;42970;50.996;3.706;2023-02-19T00:40:23;75599.78;;;-146.65;100.00
57094;BME280;42970;50.996;3.706;2023-02-19T00:42:50;75593.72;;;-146.65;100.00
57094;BME280;42970;50.996;3.706;2023-02-19T00:45:15;75593.72;;;-146.65;100.00
57094;BME280;42970;50.996;3.706;2023-02-19T00:47:40;75605.81;;;-146.65;100.00
57094;BME280;42970;50.996;3.706;2023-02-19T00:50:06;75605.81;;;-146.65;100.00
57094;BME280;42970;50.996;3.706;2023-02-19T00:52:31;75615.91;;;-146.65;100.00
57094;BME280;42970;50.996;3.706;2023-02-19T00:54:56;75601.78;;;-146.65;100.00
57094;BME280;42970;50.996;3.706;2023-02-19T00:57:23;75601.78;;;-146.65;100.00
57094;BME280;42970;50.996;3.706;2023-02-19T00:59:48;75599.78;;;-146.65;100.00
57094;BME280;42970;50.996;3.706;2023-02-19T01:02:13;75593.72;;;-146.65;100.00
57094;BME280;42970;50.996;3.706;2023-02-19T01:04:39;75613.88;;;-146.65;100.00
57094;BME280;42970;50.996;3.706;2023-02-19T01:07:04;75611.88;;;-146.65;100.00
57094;BME280;42970;50.996;3.706;2023-02-19T01:09:29;75601.78;;;-146.65;100.00
57094;BME280;42970;50.996;3.706;2023-02-19T01:11:55;75603.81;;;-146.65;100.00
57094;BME280;42970;50.996;3.706;2023-02-19T01:14:20;75605.81;;;-146.65;100.00
57094;BME280;42970;50.996;3.706;2023-02-19T01:16:45;75603.81;;;-146.65;100.00
57094;BME280;42970;50.996;3.706;2023-02-19T01:19:10;75609.84;;;-146.65;100.00
57094;BME280;42970;50.996;3.706;2023-02-19T01:21:36;75613.88;;;-146.65;100.00
57094;BME280;42970;50.996;3.706;2023-02-19T01:24:01;75605.81;;;-146.65;100.00
57094;BME280;42970;50.996;3.706;2023-02-19T01:26:27;75619.94;;;-146.65;100.00
57094;BME280;42970;50.996;3.706;2023-02-19T01:28:53;75626.00;;;-146.65;100.00
57094;BME280;42970;50.996;3.706;2023-02-19T01:31:20;75630.03;;;-146.65;100.00
57094;BME280;42970;50.996;3.706;2023-02-19T01:33:46;75630.03;;;-146.65;100.00
57094;BME280;42970;50.996;3.706;2023-02-19T01:36:12;75634.06;;;-146.65;100.00
57094;BME280;42970;50.996;3.706;2023-02-19T01:38:38;75638.09;;;-146.65;100.00
57094;BME280;42970;50.996;3.706;2023-02-19T01:41:04;75630.03;;;-146.65;100.00
57094;BME280;42970;50.996;3.706;2023-02-19T01:43:30;75630.03;;;-146.65;100.00
57094;BME280;42970;50.996;3.706;2023-02-19T01:45:56;75628.00;;;-146.65;100.00
57094;BME280;42970;50.996;3.706;2023-02-19T01:48:26;75636.06;;;-146.65;100.00
57094;BME280;42970;50.996;3.706;2023-02-19T01:51:04;75628.00;;;-146.65;100.00
57094;BME280;42970;50.996;3.706;2023-02-19T01:53:32;75617.94;;;-146.65;100.00
57094;BME280;42970;50.996;3.706;2023-02-19T01:55:58;75630.03;;;-146.65;100.00
57094;BME280;42970;50.996;3.706;2023-02-19T01:58:25;75621.97;;;-146.65;100.00
57094;BME280;42970;50.996;3.706;2023-02-19T02:00:53;75628.00;;;-146.65;100.00
57094;BME280;42970;50.996;3.706;2023-02-19T02:03:18;75632.03;;;-146.65;100.00
57094;BME280;42970;50.996;3.706;2023-02-19T02:05:58;75638.09;;;-146.65;100.00
57094;BME280;42970;50.996;3.706;2023-02-19T02:08:25;75640.09;;;-146.65;100.00
57094;BME280;42970;50.996;3.706;2023-02-19T02:11:09;75634.06;;;-146.65;100.00
57094;BME280;42970;50.996;3.706;2023-02-19T02:13:34;75630.03;;;-146.65;100.00
57094;BME280;42970;50.996;3.706;2023-02-19T02:21:08;75623.97;;;-146.65;100.00
57094;BME280;42970;50.996;3.706;2023-02-19T02:23:56;75634.06;;;-146.65;100.00
57094;BME280;42970;50.996;3.706;2023-02-19T02:29:13;75632.03;;;-146.65;100.00
57094;BME280;42970;50.996;3.706;2023-02-19T02:31:50;75615.91;;;-146.65;100.00
57094;BME280;42970;50.996;3.706;2023-02-19T02:34:19;75626.00;;;-146.65;100.00
57094;BME280;42970;50.996;3.706;2023-02-19T02:36:48;75623.97;;;-146.65;99.95
57094;BME280;42970;50.996;3.706;2023-02-19T02:39:17;75628.00;;;-146.65;100.00
57094;BME280;42970;50.996;3.706;2023-02-19T02:41:44;75634.06;;;-146.65;100.00
57094;BME280;42970;50.996;3.706;2023-02-19T02:44:13;75621.97;;;-146.65;99.70
57094;BME280;42970;50.996;3.706;2023-02-19T02:46:39;75634.06;;;-146.65;100.00
57094;BME280;42970;50.996;3.706;2023-02-19T02:49:11;75601.78;;;-146.65;98.93
57094;BME280;42970;50.996;3.706;2023-02-19T02:51:39;75605.81;;;-146.65;99.06
57094;BME280;42970;50.996;3.706;2023-02-19T02:54:11;75605.81;;;-146.65;98.50
57094;BME280;42970;50.996;3.706;2023-02-19T02:56:57;75613.88;;;-146.65;98.79
57094;BME280;42970;50.996;3.706;2023-02-19T02:59:24;75621.97;;;-146.65;98.88
57094;BME280;42970;50.996;3.706;2023-02-19T03:01:52;75638.09;;;-146.65;99.53
57094;BME280;42970;50.996;3.706;2023-02-19T03:07:36;75623.97;;;-146.65;99.43
57094;BME280;42970;50.996;3.706;2023-02-19T03:10:04;75630.03;;;-146.65;99.15
57094;BME280;42970;50.996;3.706;2023-02-19T03:12:31;75630.03;;;-146.65;99.53
57094;BME280;42970;50.996;3.706;2023-02-19T03:15:15;75640.09;;;-146.65;99.98
57094;BME280;42970;50.996;3.706;2023-02-19T03:18:00;75636.06;;;-146.65;99.72
57094;BME280;42970;50.996;3.706;2023-02-19T03:20:45;75638.09;;;-146.65;99.63
57094;BME280;42970;50.996;3.706;2023-02-19T03:23:12;75636.06;;;-146.65;99.46
57094;BME280;42970;50.996;3.706;2023-02-19T03:25:40;75642.13;;;-146.65;99.43
57094;BME280;42970;50.996;3.706;2023-02-19T03:28:25;75650.19;;;-146.65;100.00
57094;BME280;42970;50.996;3.706;2023-02-19T03:31:11;75646.16;;;-146.65;99.68
57094;BME280;42970;50.996;3.706;2023-02-19T03:33:37;75652.22;;;-146.65;99.86
57094;BME280;42970;50.996;3.706;2023-02-19T03:36:05;75658.25;;;-146.65;99.92
57094;BME280;42970;50.996;3.706;2023-02-19T03:38:39;75666.34;;;-146.65;100.00
57094;BME280;42970;50.996;3.706;2023-02-19T03:41:09;75658.25;;;-146.65;100.00
57094;BME280;42970;50.996;3.706;2023-02-19T03:43:45;75666.34;;;-146.65;100.00
57094;BME280;42970;50.996;3.706;2023-02-19T03:46:13;75666.34;;;-146.65;100.00
57094;BME280;42970;50.996;3.706;2023-02-19T03:48:47;75670.38;;;-146.65;100.00
57094;BME280;42970;50.996;3.706;2023-02-19T03:56:32;75698.59;;;-146.65;100.00
57094;BME280;42970;50.996;3.706;2023-02-19T03:59:01;75696.59;;;-146.65;100.00
57094;BME280;42970;50.996;3.706;2023-02-19T04:01:46;75706.69;;;-146.65;100.00
57094;BME280;42970;50.996;3.706;2023-02-19T04:07:04;75712.72;;;-146.65;100.00
57094;BME280;42970;50.996;3.706;2023-02-19T04:09:35;75710.72;;;-146.65;100.00
57094;BME280;42970;50.996;3.706;2023-02-19T04:12:01;75714.75;;;-146.65;100.00
57094;BME280;42970;50.996;3.706;2023-02-19T04:16:53;75718.78;;;-146.65;100.00
57094;BME280;42970;50.996;3.706;2023-02-19T04:19:20;75722.81;;;-146.65;100.00
57094;BME280;42970;50.996;3.706;2023-02-19T04:21:48;75732.91;;;-146.65;100.00
57094;BME280;42970;50.996;3.706;2023-02-19T04:24:20;75724.81;;;-146.65;100.00
57094;BME280;42970;50.996;3.706;2023-02-19T04:26:47;75726.84;;;-146.65;100.00
57094;BME280;42970;50.996;3.706;2023-02-19T04:29:12;75736.94;;;-146.65;100.00
57094;BME280;42970;50.996;3.706;2023-02-19T04:31:38;75738.94;;;-146.65;100.00
57094;BME280;42970;50.996;3.706;2023-02-19T04:34:03;75726.84;;;-146.65;100.00
57094;BME280;42970;50.996;3.706;2023-02-19T04:36:29;75730.88;;;-146.65;100.00
57094;BME280;42970;50.996;3.706;2023-02-19T04:38:55;75732.91;;;-146.65;100.00
57094;BME280;42970;50.996;3.706;2023-02-19T04:41:20;75736.94;;;-146.65;100.00
57094;BME280;42970;50.996;3.706;2023-02-19T04:43:46;75740.97;;;-146.65;100.00
57094;BME280;42970;50.996;3.706;2023-02-19T04:46:11;75724.81;;;-146.65;100.00
57094;BME280;42970;50.996;3.706;2023-02-19T04:48:36;75736.94;;;-146.65;100.00
57094;BME280;42970;50.996;3.706;2023-02-19T04:51:05;75742.97;;;-146.65;100.00
57094;BME280;42970;50.996;3.706;2023-02-19T04:53:31;75753.06;;;-146.65;100.00
57094;BME280;42970;50.996;3.706;2023-02-19T04:55:56;75757.09;;;-146.65;100.00
57094;BME280;42970;50.996;3.706;2023-02-19T04:58:21;75757.09;;;-146.65;100.00
57094;BME280;42970;50.996;3.706;2023-02-19T05:00:50;75759.13;;;-146.65;100.00
57094;BME280;42970;50.996;3.706;2023-02-19T05:03:15;75753.06;;;-146.65;99.81
57094;BME280;42970;50.996;3.706;2023-02-19T05:05:41;75759.13;;;-146.65;99.48
57094;BME280;42970;50.996;3.706;2023-02-19T05:08:06;75755.09;;;-146.65;99.48
57094;BME280;42970;50.996;3.706;2023-02-19T05:10:31;75765.16;;;-146.65;99.73
57094;BME280;42970;50.996;3.706;2023-02-19T05:12:57;75751.06;;;-146.65;99.30
57094;BME280;42970;50.996;3.706;2023-02-19T05:15:23;75767.19;;;-146.65;99.53
57094;BME280;42970;50.996;3.706;2023-02-19T05:17:48;75773.25;;;-146.65;100.00
57094;BME280;42970;50.996;3.706;2023-02-19T05:20:13;75763.16;;;-146.65;99.66
57094;BME280;42970;50.996;3.706;2023-02-19T05:22:38;75787.38;;;-146.65;99.66
57094;BME280;42970;50.996;3.706;2023-02-19T05:25:04;75791.41;;;-146.65;99.33
57094;BME280;42970;50.996;3.706;2023-02-19T05:27:30;75801.47;;;-146.65;100.00
57094;BME280;42970;50.996;3.706;2023-02-19T05:29:55;75801.47;;;-146.65;100.00
57094;BME280;42970;50.996;3.706;2023-02-19T05:32:22;75807.53;;;-146.65;100.00
57094;BME280;42970;50.996;3.706;2023-02-19T05:34:48;75805.50;;;-146.65;100.00
57094;BME280;42970;50.996;3.706;2023-02-19T05:37:14;75803.50;;;-146.65;100.00
57094;BME280;42970;50.996;3.706;2023-02-19T05:39:40;75803.50;;;-146.65;99.69
57094;BME280;42970;50.996;3.706;2023-02-19T05:42:05;75809.56;;;-146.65;99.68
57094;BME280;42970;50.996;3.706;2023-02-19T05:44:31;75819.63;;;-146.65;100.00
57094;BME280;42970;50.996;3.706;2023-02-19T05:46:56;75807.53;;;-146.65;99.27
57094;BME280;42970;50.996;3.706;2023-02-19T05:49:21;75819.63;;;-146.65;99.58
57094;BME280;42970;50.996;3.706;2023-02-19T05:51:49;75827.72;;;-146.65;99.30
57094;BME280;42970;50.996;3.706;2023-02-19T05:54:14;75827.72;;;-146.65;99.43
57094;BME280;42970;50.996;3.706;2023-02-19T05:56:40;75825.69;;;-146.65;99.63
57094;BME280;42970;50.996;3.706;2023-02-19T05:59:06;75827.72;;;-146.65;99.63
57094;BME280;42970;50.996;3.706;2023-02-19T06:01:35;75841.81;;;-146.65;99.51
57094;BME280;42970;50.996;3.706;2023-02-19T06:04:01;75831.75;;;-146.65;99.43
57094;BME280;42970;50.996;3.706;2023-02-19T06:06:26;75837.78;;;-146.65;99.30
57094;BME280;42970;50.996;3.706;2023-02-19T06:08:52;75845.84;;;-146.65;99.20
57094;BME280;42970;50.996;3.706;2023-02-19T06:11:17;75843.84;;;-146.65;98.94
57094;BME280;42970;50.996;3.706;2023-02-19T06:13:43;75829.72;;;-146.65;98.91
57094;BME280;42970;50.996;3.706;2023-02-19T06:16:08;75843.84;;;-146.65;98.87
57094;BME280;42970;50.996;3.706;2023-02-19T06:18:34;75831.75;;;-146.65;98.71
57094;BME280;42970;50.996;3.706;2023-02-19T06:21:06;75841.81;;;-146.65;99.12
57094;BME280;42970;50.996;3.706;2023-02-19T06:23:31;75847.88;;;-146.65;99.32
57094;BME280;42970;50.996;3.706;2023-02-19T06:26:11;75847.88;;;-146.65;99.23
57094;BME280;42970;50.996;3.706;2023-02-19T06:28:37;75853.94;;;-146.65;99.38
57094;BME280;42970;50.996;3.706;2023-02-19T06:31:02;75859.97;;;-146.65;99.19
57094;BME280;42970;50.996;3.706;2023-02-19T06:33:28;75859.97;;;-146.65;99.20
57094;BME280;42970;50.996;3.706;2023-02-19T06:35:53;75859.97;;;-146.65;98.96
57094;BME280;42970;50.996;3.706;2023-02-19T06:38:21;75853.94;;;-146.65;98.71
57094;BME280;42970;50.996;3.706;2023-02-19T06:40:46;75853.94;;;-146.65;98.72
57094;BME280;42970;50.996;3.706;2023-02-19T06:43:12;75845.84;;;-146.65;97.80
57094;BME280;42970;50.996;3.706;2023-02-19T06:45:37;75862.00;;;-146.65;98.14
57094;BME280;42970;50.996;3.706;2023-02-19T06:48:03;75851.91;;;-146.65;97.53
57094;BME280;42970;50.996;3.706;2023-02-19T06:50:28;75835.78;;;-146.65;97.50
57094;BME280;42970;50.996;3.706;2023-02-19T06:52:53;75857.97;;;-146.65;97.79
57094;BME280;42970;50.996;3.706;2023-02-19T06:55:19;75855.94;;;-146.65;98.21
57094;BME280;42970;50.996;3.706;2023-02-19T06:57:44;75864.00;;;-146.65;98.51
57094;BME280;42970;50.996;3.706;2023-02-19T07:00:10;75849.91;;;-146.65;98.43
57094;BME280;42970;50.996;3.706;2023-02-19T07:02:35;75872.09;;;-146.65;98.69
57094;BME280;42970;50.996;3.706;2023-02-19T07:05:01;75872.09;;;-146.65;98.54
57094;BME280;42970;50.996;3.706;2023-02-19T07:07:26;75884.19;;;-146.65;98.92
57094;BME280;42970;50.996;3.706;2023-02-19T07:09:52;75874.09;;;-146.65;99.11
57094;BME280;42970;50.996;3.706;2023-02-19T07:12:17;75874.09;;;-146.65;99.11
57094;BME280;42970;50.996;3.706;2023-02-19T07:14:43;75888.22;;;-146.65;98.58
57094;BME280;42970;50.996;3.706;2023-02-19T07:17:08;75884.19;;;-146.65;98.79
57094;BME280;42970;50.996;3.706;2023-02-19T07:19:33;75880.16;;;-146.65;97.82
57094;BME280;42970;50.996;3.706;2023-02-19T07:21:59;75880.16;;;-146.65;98.36
57094;BME280;42970;50.996;3.706;2023-02-19T07:24:24;75878.13;;;-146.65;97.92
57094;BME280;42970;50.996;3.706;2023-02-19T07:26:50;75880.16;;;-146.65;97.87
57094;BME280;42970;50.996;3.706;2023-02-19T07:29:15;75884.19;;;-146.65;97.43
57094;BME280;42970;50.996;3.706;2023-02-19T07:31:41;75894.28;;;-146.65;97.67
57094;BME280;42970;50.996;3.706;2023-02-19T07:34:06;75892.25;;;-146.65;97.78
57094;BME280;42970;50.996;3.706;2023-02-19T07:36:32;75894.28;;;-146.65;98.21
57094;BME280;42970;50.996;3.706;2023-02-19T07:38:58;75904.34;;;-146.65;98.17
57094;BME280;42970;50.996;3.706;2023-02-19T07:41:23;75900.31;;;-146.65;98.01
57094;BME280;42970;50.996;3.706;2023-02-19T07:43:49;75910.41;;;-146.65;98.17
57094;BME280;42970;50.996;3.706;2023-02-19T07:46:14;75910.41;;;-146.65;98.11
57094;BME280;42970;50.996;3.706;2023-02-19T07:48:40;75916.47;;;-146.65;98.23
57094;BME280;42970;50.996;3.706;2023-02-19T07:51:07;75912.44;;;-146.65;97.82
57094;BME280;42970;50.996;3.706;2023-02-19T07:53:33;75924.53;;;-146.65;98.14
57094;BME280;42970;50.996;3.706;2023-02-19T07:55:59;75914.44;;;-146.65;97.17
57094;BME280;42970;50.996;3.706;2023-02-19T07:58:26;75924.53;;;-146.65;97.84
57094;BME280;42970;50.996;3.706;2023-02-19T08:00:51;75898.31;;;-146.65;97.78
57094;BME280;42970;50.996;3.706;2023-02-19T08:03:16;75916.47;;;-146.65;97.34
57094;BME280;42970;50.996;3.706;2023-02-19T08:05:42;75912.44;;;-146.65;97.39
57094;BME280;42970;50.996;3.706;2023-02-19T08:08:10;75904.34;;;-146.65;97.39
57094;BME280;42970;50.996;3.706;2023-02-19T08:10:36;75918.47;;;-146.65;97.55
57094;BME280;42970;50.996;3.706;2023-02-19T08:13:20;75912.44;;;-146.65;97.17
57094;BME280;42970;50.996;3.706;2023-02-19T08:15:50;75926.56;;;-146.65;97.62
57094;BME280;42970;50.996;3.706;2023-02-19T08:18:16;75922.50;;;-146.65;97.79
57094;BME280;42970;50.996;3.706;2023-02-19T08:20:42;75924.53;;;-146.65;97.78
57094;BME280;42970;50.996;3.706;2023-02-19T08:23:08;75926.56;;;-146.65;97.97
57094;BME280;42970;50.996;3.706;2023-02-19T08:25:33;75936.63;;;-146.65;97.25
57094;BME280;42970;50.996;3.706;2023-02-19T08:27:59;75932.59;;;-146.65;97.24
57094;BME280;42970;50.996;3.706;2023-02-19T08:30:24;75926.56;;;-146.65;97.39
57094;BME280;42970;50.996;3.706;2023-02-19T08:32:50;75916.47;;;-146.65;97.32
57094;BME280;42970;50.996;3.706;2023-02-19T08:35:15;75930.59;;;-146.65;97.24
57094;BME280;42970;50.996;3.706;2023-02-19T08:37:42;75928.56;;;-146.65;97.51
57094;BME280;42970;50.996;3.706;2023-02-19T08:40:07;75928.56;;;-146.65;96.56
57094;BME280;42970;50.996;3.706;2023-02-19T08:42:32;75930.59;;;-146.65;96.49
57094;BME280;42970;50.996;3.706;2023-02-19T08:44:58;75932.59;;;-146.65;96.63
57094;BME280;42970;50.996;3.706;2023-02-19T08:47:23;75932.59;;;-146.65;96.46
57094;BME280;42970;50.996;3.706;2023-02-19T08:49:49;75938.66;;;-146.65;96.17
57094;BME280;42970;50.996;3.706;2023-02-19T08:52:17;75948.75;;;-146.65;96.59
57094;BME280;42970;50.996;3.706;2023-02-19T08:54:42;75936.63;;;-146.65;96.40
57094;BME280;42970;50.996;3.706;2023-02-19T08:57:07;75942.69;;;-146.65;96.17
57094;BME280;42970;50.996;3.706;2023-02-19T08:59:33;75930.59;;;-146.65;96.27
57094;BME280;42970;50.996;3.706;2023-02-19T09:01:58;75932.59;;;-146.65;96.42
57094;BME280;42970;50.996;3.706;2023-02-19T09:04:23;75916.47;;;-146.65;95.81
57094;BME280;42970;50.996;3.706;2023-02-19T09:06:49;75916.47;;;-146.65;95.69
57094;BME280;42970;50.996;3.706;2023-02-19T09:09:14;75904.34;;;-146.65;95.63
57094;BME280;42970;50.996;3.706;2023-02-19T09:11:40;75926.56;;;-146.65;95.40
57094;BME280;42970;50.996;3.706;2023-02-19T09:14:05;75916.47;;;-146.65;95.53
57094;BME280;42970;50.996;3.706;2023-02-19T09:16:34;75916.47;;;-146.65;94.57
57094;BME280;42970;50.996;3.706;2023-02-19T09:18:59;75914.44;;;-146.65;94.40
57094;BME280;42970;50.996;3.706;2023-02-19T09:21:25;75920.50;;;-146.65;94.98
57094;BME280;42970;50.996;3.706;2023-02-19T09:23:50;75914.44;;;-146.65;95.52
57094;BME280;42970;50.996;3.706;2023-02-19T09:26:16;75910.41;;;-146.65;95.34
57094;BME280;42970;50.996;3.706;2023-02-19T09:28:41;75906.38;;;-146.65;95.56
57094;BME280;42970;50.996;3.706;2023-02-19T09:31:08;75912.44;;;-146.65;95.03
57094;BME280;42970;50.996;3.706;2023-02-19T09:33:34;75918.47;;;-146.65;94.63
57094;BME280;42970;50.996;3.706;2023-02-19T09:36:00;75906.38;;;-146.65;94.20
57094;BME280;42970;50.996;3.706;2023-02-19T09:38:25;75900.31;;;-146.65;94.37
57094;BME280;42970;50.996;3.706;2023-02-19T09:40:51;75888.22;;;-146.65;94.36
57094;BME280;42970;50.996;3.706;2023-02-19T09:43:18;75888.22;;;-146.65;93.77
57094;BME280;42970;50.996;3.706;2023-02-19T09:45:44;75898.31;;;-146.65;93.61
57094;BME280;42970;50.996;3.706;2023-02-19T09:48:10;75890.25;;;-146.65;93.93
57094;BME280;42970;50.996;3.706;2023-02-19T09:50:41;75900.31;;;-146.65;92.49
57094;BME280;42970;50.996;3.706;2023-02-19T09:53:18;75888.22;;;-146.65;92.80
57094;BME280;42970;50.996;3.706;2023-02-19T09:55:43;75896.28;;;-146.65;92.63
57094;BME280;42970;50.996;3.706;2023-02-19T09:58:28;75910.41;;;-146.65;92.42
57094;BME280;42970;50.996;3.706;2023-02-19T10:00:55;75912.44;;;-146.65;92.75
57094;BME280;42970;50.996;3.706;2023-02-19T10:05:47;75920.50;;;-146.65;92.27
57094;BME280;42970;50.996;3.706;2023-02-19T10:08:14;75916.47;;;-146.65;91.99
57094;BME280;42970;50.996;3.706;2023-02-19T10:10:42;75906.38;;;-146.65;92.47
57094;BME280;42970;50.996;3.706;2023-02-19T10:13:41;75918.47;;;-146.65;91.42
57094;BME280;42970;50.996;3.706;2023-02-19T10:16:00;75944.69;;;-146.65;92.46
57094;BME280;42970;50.996;3.706;2023-02-19T10:18:27;75928.56;;;-146.65;91.74
57094;BME280;42970;50.996;3.706;2023-02-19T10:20:53;75922.50;;;-146.65;92.17
57094;BME280;42970;50.996;3.706;2023-02-19T10:23:19;75928.56;;;-146.65;91.50
57094;BME280;42970;50.996;3.706;2023-02-19T10:25:49;75936.63;;;-146.65;91.66
57094;BME280;42970;50.996;3.706;2023-02-19T10:28:18;75928.56;;;-146.65;92.16
57094;BME280;42970;50.996;3.706;2023-02-19T10:30:54;75944.69;;;-146.65;91.89
57094;BME280;42970;50.996;3.706;2023-02-19T10:33:20;75954.78;;;-146.65;92.31
57094;BME280;42970;50.996;3.706;2023-02-19T10:35:58;75924.53;;;-146.65;93.18
57094;BME280;42970;50.996;3.706;2023-02-19T10:38:28;75932.59;;;-146.65;92.43
57094;BME280;42970;50.996;3.706;2023-02-19T10:40:59;75934.63;;;-146.65;91.97
57094;BME280;42970;50.996;3.706;2023-02-19T10:43:27;75940.66;;;-146.65;93.20
57094;BME280;42970;50.996;3.706;2023-02-19T10:45:57;75942.69;;;-146.65;92.33
57094;BME280;42970;50.996;3.706;2023-02-19T10:48:45;75948.75;;;-146.65;90.75
57094;BME280;42970;50.996;3.706;2023-02-19T10:51:09;75964.88;;;-146.65;90.48
57094;BME280;42970;50.996;3.706;2023-02-19T10:53:41;75970.94;;;-146.65;90.62
57094;BME280;42970;50.996;3.706;2023-02-19T10:58:35;75960.84;;;-146.65;90.02
57094;BME280;42970;50.996;3.706;2023-02-19T11:01:11;75981.00;;;-146.65;89.75
57094;BME280;42970;50.996;3.706;2023-02-19T11:03:36;76001.19;;;-146.65;89.45
57094;BME280;42970;50.996;3.706;2023-02-19T11:06:02;76005.22;;;-146.65;90.51
57094;BME280;42970;50.996;3.706;2023-02-19T11:08:29;76015.31;;;-146.65;90.41
57094;BME280;42970;50.996;3.706;2023-02-19T11:10:56;76005.22;;;-146.65;90.79
57094;BME280;42970;50.996;3.706;2023-02-19T11:13:31;76001.19;;;-146.65;89.99
57094;BME280;42970;50.996;3.706;2023-02-19T11:16:04;75985.03;;;-146.65;89.75
57094;BME280;42970;50.996;3.706;2023-02-19T11:18:31;75987.06;;;-146.65;87.74
57094;BME280;42970;50.996;3.706;2023-02-19T11:21:00;75993.13;;;-146.65;88.62
57094;BME280;42970;50.996;3.706;2023-02-19T11:23:27;75976.97;;;-146.65;87.54
57094;BME280;42970;50.996;3.706;2023-02-19T11:25:53;75976.97;;;-146.65;87.92
57094;BME280;42970;50.996;3.706;2023-02-19T11:28:38;75981.00;;;-146.65;88.33
57094;BME280;42970;50.996;3.706;2023-02-19T11:34:22;76019.34;;;-146.65;90.49
57094;BME280;42970;50.996;3.706;2023-02-19T11:37:06;76033.47;;;-146.65;89.22
57094;BME280;42970;50.996;3.706;2023-02-19T11:39:32;76021.34;;;-146.65;89.93
57094;BME280;42970;50.996;3.706;2023-02-19T11:49:41;76001.19;;;-146.65;91.37
57094;BME280;42970;50.996;3.706;2023-02-19T11:54:43;75991.09;;;-146.65;91.57
57094;BME280;42970;50.996;3.706;2023-02-19T11:57:23;75964.88;;;-146.65;91.94
57094;BME280;42970;50.996;3.706;2023-02-19T12:31:09;75983.03;;;-146.65;89.05
57094;BME280;42970;50.996;3.706;2023-02-19T12:33:46;76001.19;;;-146.65;88.51
57094;BME280;42970;50.996;3.706;2023-02-19T12:38:53;76007.25;;;-146.65;88.38
57094;BME280;42970;50.996;3.706;2023-02-19T12:41:26;76003.22;;;-146.65;89.45
57094;BME280;42970;50.996;3.706;2023-02-19T12:46:58;76039.50;;;-146.65;88.15
57094;BME280;42970;50.996;3.706;2023-02-19T12:52:15;76049.59;;;-146.65;90.22
57094;BME280;42970;50.996;3.706;2023-02-19T12:54:43;76045.56;;;-146.65;90.99
57094;BME280;42970;50.996;3.706;2023-02-19T12:57:14;76053.63;;;-146.65;91.31
57094;BME280;42970;50.996;3.706;2023-02-19T12:59:45;76059.69;;;-146.65;91.16
57094;BME280;42970;50.996;3.706;2023-02-19T13:02:21;76067.75;;;-146.65;90.84
57094;BME280;42970;50.996;3.706;2023-02-19T13:05:00;76057.66;;;-146.65;90.02
57094;BME280;42970;50.996;3.706;2023-02-19T13:07:35;76063.72;;;-146.65;88.67
57094;BME280;42970;50.996;3.706;2023-02-19T13:12:53;76061.72;;;-146.65;87.62
57094;BME280;42970;50.996;3.706;2023-02-19T13:15:28;76063.72;;;-146.65;86.98
57094;BME280;42970;50.996;3.706;2023-02-19T13:17:55;76049.59;;;-146.65;87.87
57094;BME280;42970;50.996;3.706;2023-02-19T13:20:38;76053.63;;;-146.65;88.18
57094;BME280;42970;50.996;3.706;2023-02-19T13:28:53;76085.91;;;-146.65;88.33
57094;BME280;42970;50.996;3.706;2023-02-19T13:36:59;76069.78;;;-146.65;88.25
57094;BME280;42970;50.996;3.706;2023-02-19T13:39:25;76067.75;;;-146.65;88.20
57094;BME280;42970;50.996;3.706;2023-02-19T13:41:51;76075.81;;;-146.65;88.74
57094;BME280;42970;50.996;3.706;2023-02-19T13:44:19;76067.75;;;-146.65;89.98
57094;BME280;42970;50.996;3.706;2023-02-19T13:46:45;76071.78;;;-146.65;90.73
57094;BME280;42970;50.996;3.706;2023-02-19T13:51:54;76106.09;;;-146.65;92.84
57094;BME280;42970;50.996;3.706;2023-02-19T13:54:21;76138.38;;;-146.65;94.09
57094;BME280;42970;50.996;3.706;2023-02-19T13:56:47;76156.53;;;-146.65;95.76
57094;BME280;42970;50.996;3.706;2023-02-19T13:59:23;76182.75;;;-146.65;96.59
57094;BME280;42970;50.996;3.706;2023-02-19T14:04:21;76211.00;;;-146.65;98.24
57094;BME280;42970;50.996;3.706;2023-02-19T14:14:39;76249.31;;;-146.65;100.00
57094;BME280;42970;50.996;3.706;2023-02-19T14:19:52;76239.22;;;-146.65;100.00
57094;BME280;42970;50.996;3.706;2023-02-19T14:25:02;76208.97;;;-146.65;100.00
57094;BME280;42970;50.996;3.706;2023-02-19T14:27:30;76215.03;;;-146.65;99.45
57094;BME280;42970;50.996;3.706;2023-02-19T14:29:55;76194.84;;;-146.65;98.76
57094;BME280;42970;50.996;3.706;2023-02-19T14:32:21;76188.78;;;-146.65;98.69